Terminal Aerodrome Forecast
Issued by NWS Sioux Falls, SD

Home | Current Version | Previous Version | Text Only | Print | Product List | Glossary On
Versions: 1 2 3 4 5 6 7 8 9 10 11 12 13 14 15 16 17 18
000
FTUS43 KFSD 012347
TAFFSD
TAF
KFSD 012347Z 0200/0224 34015KT P6SM SCT015
     FM020500 VRB03KT P6SM SKC
     FM021500 17008KT P6SM BKN150
     FM021800 17012KT P6SM BKN080=

USA.gov is the U.S. government's official web portal to all federal, state and local government web resources and services.